sensor_id;sensor_type;location;lat;lon;timestamp;temperature;humidity
5041;DHT22;2539;52.568;13.364;2023-11-19T00:00:26;4.90;99.90
5041;DHT22;2539;52.568;13.364;2023-11-19T00:02:52;5.00;99.90
5041;DHT22;2539;52.568;13.364;2023-11-19T00:05:19;5.00;99.90
5041;DHT22;2539;52.568;13.364;2023-11-19T00:07:45;5.00;99.90
5041;DHT22;2539;52.568;13.364;2023-11-19T00:10:13;5.00;99.90
5041;DHT22;2539;52.568;13.364;2023-11-19T00:12:42;5.10;99.90
5041;DHT22;2539;52.568;13.364;2023-11-19T00:15:10;5.00;99.90
5041;DHT22;2539;52.568;13.364;2023-11-19T00:17:38;5.00;99.90
5041;DHT22;2539;52.568;13.364;2023-11-19T00:20:07;5.00;99.90
5041;DHT22;2539;52.568;13.364;2023-11-19T00:22:33;5.10;99.90
5041;DHT22;2539;52.568;13.364;2023-11-19T00:25:00;5.10;99.90
5041;DHT22;2539;52.568;13.364;2023-11-19T00:27:26;5.00;99.90
5041;DHT22;2539;52.568;13.364;2023-11-19T00:29:52;5.10;99.90
5041;DHT22;2539;52.568;13.364;2023-11-19T00:32:19;5.10;99.90
5041;DHT22;2539;52.568;13.364;2023-11-19T00:34:45;5.10;99.90
5041;DHT22;2539;52.568;13.364;2023-11-19T00:37:14;5.10;99.90
5041;DHT22;2539;52.568;13.364;2023-11-19T00:39:41;5.10;99.90
5041;DHT22;2539;52.568;13.364;2023-11-19T00:42:08;5.10;99.90
5041;DHT22;2539;52.568;13.364;2023-11-19T00:44:36;5.10;99.90
5041;DHT22;2539;52.568;13.364;2023-11-19T00:47:03;5.10;99.90
5041;DHT22;2539;52.568;13.364;2023-11-19T00:49:29;5.20;99.90
5041;DHT22;2539;52.568;13.364;2023-11-19T00:51:55;5.20;99.90
5041;DHT22;2539;52.568;13.364;2023-11-19T00:54:21;5.20;99.90
5041;DHT22;2539;52.568;13.364;2023-11-19T00:56:51;5.20;99.90
5041;DHT22;2539;52.568;13.364;2023-11-19T00:59:18;5.20;99.90
5041;DHT22;2539;52.568;13.364;2023-11-19T01:01:45;5.30;99.90
5041;DHT22;2539;52.568;13.364;2023-11-19T01:04:11;5.30;99.90
5041;DHT22;2539;52.568;13.364;2023-11-19T01:06:37;5.10;99.90
5041;DHT22;2539;52.568;13.364;2023-11-19T01:09:08;5.30;99.90
5041;DHT22;2539;52.568;13.364;2023-11-19T01:11:35;5.30;99.90
5041;DHT22;2539;52.568;13.364;2023-11-19T01:14:01;5.30;99.90
5041;DHT22;2539;52.568;13.364;2023-11-19T01:16:26;5.30;99.90
5041;DHT22;2539;52.568;13.364;2023-11-19T01:18:52;5.20;99.90
5041;DHT22;2539;52.568;13.364;2023-11-19T01:21:18;5.30;99.90
5041;DHT22;2539;52.568;13.364;2023-11-19T01:23:45;5.20;99.90
5041;DHT22;2539;52.568;13.364;2023-11-19T01:26:12;5.30;99.90
5041;DHT22;2539;52.568;13.364;2023-11-19T01:28:39;5.30;99.90
5041;DHT22;2539;52.568;13.364;2023-11-19T01:31:06;5.40;99.90
5041;DHT22;2539;52.568;13.364;2023-11-19T01:33:37;5.40;99.90
5041;DHT22;2539;52.568;13.364;2023-11-19T01:36:04;5.40;99.90
5041;DHT22;2539;52.568;13.364;2023-11-19T01:38:30;5.40;99.90
5041;DHT22;2539;52.568;13.364;2023-11-19T01:41:00;5.40;99.90
5041;DHT22;2539;52.568;13.364;2023-11-19T01:43:38;5.40;99.90
5041;DHT22;2539;52.568;13.364;2023-11-19T01:46:07;5.40;99.90
5041;DHT22;2539;52.568;13.364;2023-11-19T01:48:38;5.40;99.90
5041;DHT22;2539;52.568;13.364;2023-11-19T01:51:08;5.40;99.90
5041;DHT22;2539;52.568;13.364;2023-11-19T01:53:36;5.50;99.90
5041;DHT22;2539;52.568;13.364;2023-11-19T01:56:05;5.50;99.90
5041;DHT22;2539;52.568;13.364;2023-11-19T01:58:38;5.50;99.90
5041;DHT22;2539;52.568;13.364;2023-11-19T02:01:08;5.50;99.90
5041;DHT22;2539;52.568;13.364;2023-11-19T02:03:35;5.50;99.90
5041;DHT22;2539;52.568;13.364;2023-11-19T02:06:01;5.50;99.90
5041;DHT22;2539;52.568;13.364;2023-11-19T02:08:40;5.50;99.90
5041;DHT22;2539;52.568;13.364;2023-11-19T02:11:07;5.40;99.90
5041;DHT22;2539;52.568;13.364;2023-11-19T02:13:33;5.40;99.90
5041;DHT22;2539;52.568;13.364;2023-11-19T02:16:02;5.40;99.90
5041;DHT22;2539;52.568;13.364;2023-11-19T02:18:29;5.40;99.90
5041;DHT22;2539;52.568;13.364;2023-11-19T02:20:59;5.40;99.90
5041;DHT22;2539;52.568;13.364;2023-11-19T02:23:29;5.30;99.90
5041;DHT22;2539;52.568;13.364;2023-11-19T02:26:00;5.40;99.90
5041;DHT22;2539;52.568;13.364;2023-11-19T02:28:28;5.40;99.90
5041;DHT22;2539;52.568;13.364;2023-11-19T02:30:54;5.40;99.90
5041;DHT22;2539;52.568;13.364;2023-11-19T02:33:20;5.40;99.90
5041;DHT22;2539;52.568;13.364;2023-11-19T02:35:47;6.70;99.90
5041;DHT22;2539;52.568;13.364;2023-11-19T02:38:13;5.40;99.90
5041;DHT22;2539;52.568;13.364;2023-11-19T02:40:40;5.40;99.90
5041;DHT22;2539;52.568;13.364;2023-11-19T02:43:06;5.50;99.90
5041;DHT22;2539;52.568;13.364;2023-11-19T02:45:34;5.40;99.90
5041;DHT22;2539;52.568;13.364;2023-11-19T02:48:01;5.40;99.90
5041;DHT22;2539;52.568;13.364;2023-11-19T02:50:28;5.40;99.90
5041;DHT22;2539;52.568;13.364;2023-11-19T02:52:56;5.50;99.90
5041;DHT22;2539;52.568;13.364;2023-11-19T02:55:22;5.50;99.90
5041;DHT22;2539;52.568;13.364;2023-11-19T02:57:50;5.50;99.90
5041;DHT22;2539;52.568;13.364;2023-11-19T03:00:22;5.50;99.90
5041;DHT22;2539;52.568;13.364;2023-11-19T03:02:57;5.60;99.90
5041;DHT22;2539;52.568;13.364;2023-11-19T03:05:35;5.60;99.90
5041;DHT22;2539;52.568;13.364;2023-11-19T03:08:00;5.60;99.90
5041;DHT22;2539;52.568;13.364;2023-11-19T03:10:28;5.60;99.90
5041;DHT22;2539;52.568;13.364;2023-11-19T03:12:55;6.30;99.90
5041;DHT22;2539;52.568;13.364;2023-11-19T03:15:23;5.60;99.90
5041;DHT22;2539;52.568;13.364;2023-11-19T03:17:49;5.70;99.90
5041;DHT22;2539;52.568;13.364;2023-11-19T03:20:15;5.70;99.90
5041;DHT22;2539;52.568;13.364;2023-11-19T03:22:43;5.60;99.90
5041;DHT22;2539;52.568;13.364;2023-11-19T03:25:10;5.70;99.90
5041;DHT22;2539;52.568;13.364;2023-11-19T03:27:37;5.60;99.90
5041;DHT22;2539;52.568;13.364;2023-11-19T03:30:08;5.70;99.90
5041;DHT22;2539;52.568;13.364;2023-11-19T03:32:36;5.60;99.90
5041;DHT22;2539;52.568;13.364;2023-11-19T03:35:03;5.50;99.90
5041;DHT22;2539;52.568;13.364;2023-11-19T03:37:30;5.50;99.90
5041;DHT22;2539;52.568;13.364;2023-11-19T03:39:57;5.40;99.90
5041;DHT22;2539;52.568;13.364;2023-11-19T03:42:28;5.30;99.90
5041;DHT22;2539;52.568;13.364;2023-11-19T03:44:56;5.20;99.90
5041;DHT22;2539;52.568;13.364;2023-11-19T03:47:22;5.10;99.90
5041;DHT22;2539;52.568;13.364;2023-11-19T03:49:49;5.00;99.90
5041;DHT22;2539;52.568;13.364;2023-11-19T03:52:17;5.00;99.90
5041;DHT22;2539;52.568;13.364;2023-11-19T03:54:43;5.00;99.90
5041;DHT22;2539;52.568;13.364;2023-11-19T03:57:10;4.90;99.90
5041;DHT22;2539;52.568;13.364;2023-11-19T03:59:39;4.90;99.90
5041;DHT22;2539;52.568;13.364;2023-11-19T04:02:05;4.90;99.90
5041;DHT22;2539;52.568;13.364;2023-11-19T04:04:31;4.90;99.90
5041;DHT22;2539;52.568;13.364;2023-11-19T04:06:57;4.90;99.90
5041;DHT22;2539;52.568;13.364;2023-11-19T04:09:23;4.80;99.90
5041;DHT22;2539;52.568;13.364;2023-11-19T04:11:49;4.90;99.90
5041;DHT22;2539;52.568;13.364;2023-11-19T04:14:15;4.80;99.90
5041;DHT22;2539;52.568;13.364;2023-11-19T04:16:44;4.80;99.90
5041;DHT22;2539;52.568;13.364;2023-11-19T04:19:11;4.80;99.90
5041;DHT22;2539;52.568;13.364;2023-11-19T04:21:40;4.80;99.90
5041;DHT22;2539;52.568;13.364;2023-11-19T04:24:08;4.80;99.90
5041;DHT22;2539;52.568;13.364;2023-11-19T04:26:34;4.80;99.90
5041;DHT22;2539;52.568;13.364;2023-11-19T04:29:02;4.80;99.90
5041;DHT22;2539;52.568;13.364;2023-11-19T04:31:29;4.90;99.90
5041;DHT22;2539;52.568;13.364;2023-11-19T04:33:57;4.90;99.90
5041;DHT22;2539;52.568;13.364;2023-11-19T04:36:26;4.80;99.90
5041;DHT22;2539;52.568;13.364;2023-11-19T04:38:53;4.80;99.90
5041;DHT22;2539;52.568;13.364;2023-11-19T04:41:19;4.80;99.90
5041;DHT22;2539;52.568;13.364;2023-11-19T04:43:45;4.90;99.90
5041;DHT22;2539;52.568;13.364;2023-11-19T04:46:12;4.90;99.90
5041;DHT22;2539;52.568;13.364;2023-11-19T04:48:38;4.80;99.90
5041;DHT22;2539;52.568;13.364;2023-11-19T04:51:07;4.80;99.90
5041;DHT22;2539;52.568;13.364;2023-11-19T04:53:33;4.90;99.90
5041;DHT22;2539;52.568;13.364;2023-11-19T04:55:59;4.80;99.90
5041;DHT22;2539;52.568;13.364;2023-11-19T04:58:24;4.80;99.90
5041;DHT22;2539;52.568;13.364;2023-11-19T05:00:51;4.70;99.90
5041;DHT22;2539;52.568;13.364;2023-11-19T05:03:17;4.80;99.90
5041;DHT22;2539;52.568;13.364;2023-11-19T05:05:44;4.80;99.90
5041;DHT22;2539;52.568;13.364;2023-11-19T05:08:10;4.80;99.90
5041;DHT22;2539;52.568;13.364;2023-11-19T05:10:38;4.80;99.90
5041;DHT22;2539;52.568;13.364;2023-11-19T05:13:04;4.80;99.90
5041;DHT22;2539;52.568;13.364;2023-11-19T05:15:30;4.80;99.90
5041;DHT22;2539;52.568;13.364;2023-11-19T05:17:56;4.80;99.90
5041;DHT22;2539;52.568;13.364;2023-11-19T05:20:22;4.70;99.90
5041;DHT22;2539;52.568;13.364;2023-11-19T05:22:49;4.90;99.90
5041;DHT22;2539;52.568;13.364;2023-11-19T05:25:17;4.90;99.90
5041;DHT22;2539;52.568;13.364;2023-11-19T05:27:43;4.80;99.90
5041;DHT22;2539;52.568;13.364;2023-11-19T05:30:10;4.80;99.90
5041;DHT22;2539;52.568;13.364;2023-11-19T05:32:36;4.80;99.90
5041;DHT22;2539;52.568;13.364;2023-11-19T05:35:03;4.80;99.90
5041;DHT22;2539;52.568;13.364;2023-11-19T05:37:29;4.80;99.90
5041;DHT22;2539;52.568;13.364;2023-11-19T05:39:55;4.80;99.90
5041;DHT22;2539;52.568;13.364;2023-11-19T05:42:20;4.80;99.90
5041;DHT22;2539;52.568;13.364;2023-11-19T05:44:46;4.90;99.90
5041;DHT22;2539;52.568;13.364;2023-11-19T05:47:12;4.90;99.90
5041;DHT22;2539;52.568;13.364;2023-11-19T05:49:38;4.90;99.90
5041;DHT22;2539;52.568;13.364;2023-11-19T05:52:04;4.90;99.90
5041;DHT22;2539;52.568;13.364;2023-11-19T05:54:33;4.90;99.90
5041;DHT22;2539;52.568;13.364;2023-11-19T05:57:04;4.90;99.90
5041;DHT22;2539;52.568;13.364;2023-11-19T05:59:31;4.90;99.90
5041;DHT22;2539;52.568;13.364;2023-11-19T06:01:59;5.20;99.90
5041;DHT22;2539;52.568;13.364;2023-11-19T06:04:25;4.90;99.90
5041;DHT22;2539;52.568;13.364;2023-11-19T06:06:51;4.90;99.90
5041;DHT22;2539;52.568;13.364;2023-11-19T06:09:18;4.90;99.90
5041;DHT22;2539;52.568;13.364;2023-11-19T06:11:44;5.00;99.90
5041;DHT22;2539;52.568;13.364;2023-11-19T06:14:11;4.90;99.90
5041;DHT22;2539;52.568;13.364;2023-11-19T06:16:37;5.00;99.90
5041;DHT22;2539;52.568;13.364;2023-11-19T06:19:05;5.00;99.90
5041;DHT22;2539;52.568;13.364;2023-11-19T06:21:32;5.00;99.90
5041;DHT22;2539;52.568;13.364;2023-11-19T06:23:58;4.90;99.90
5041;DHT22;2539;52.568;13.364;2023-11-19T06:26:25;5.00;99.90
5041;DHT22;2539;52.568;13.364;2023-11-19T06:28:51;5.10;99.90
5041;DHT22;2539;52.568;13.364;2023-11-19T06:31:18;5.00;99.90
5041;DHT22;2539;52.568;13.364;2023-11-19T06:33:44;5.00;99.90
5041;DHT22;2539;52.568;13.364;2023-11-19T06:36:10;5.00;99.90
5041;DHT22;2539;52.568;13.364;2023-11-19T06:38:36;5.10;99.90
5041;DHT22;2539;52.568;13.364;2023-11-19T06:41:08;5.10;99.90
5041;DHT22;2539;52.568;13.364;2023-11-19T06:43:36;5.10;99.90
5041;DHT22;2539;52.568;13.364;2023-11-19T06:46:03;5.10;99.90
5041;DHT22;2539;52.568;13.364;2023-11-19T06:48:34;5.10;99.90
5041;DHT22;2539;52.568;13.364;2023-11-19T06:51:05;5.10;99.90
5041;DHT22;2539;52.568;13.364;2023-11-19T06:53:31;5.10;99.90
5041;DHT22;2539;52.568;13.364;2023-11-19T06:55:57;5.10;99.90
5041;DHT22;2539;52.568;13.364;2023-11-19T06:58:23;5.20;99.90
5041;DHT22;2539;52.568;13.364;2023-11-19T07:00:50;5.20;99.90
5041;DHT22;2539;52.568;13.364;2023-11-19T07:03:17;5.20;99.90
5041;DHT22;2539;52.568;13.364;2023-11-19T07:05:43;5.20;99.90
5041;DHT22;2539;52.568;13.364;2023-11-19T07:08:09;5.20;99.90
5041;DHT22;2539;52.568;13.364;2023-11-19T07:10:36;5.30;99.90
5041;DHT22;2539;52.568;13.364;2023-11-19T07:13:02;5.30;99.90
5041;DHT22;2539;52.568;13.364;2023-11-19T07:15:29;5.30;99.90
5041;DHT22;2539;52.568;13.364;2023-11-19T07:17:55;5.30;99.90
5041;DHT22;2539;52.568;13.364;2023-11-19T07:20:21;5.30;99.90
5041;DHT22;2539;52.568;13.364;2023-11-19T07:22:48;5.30;99.90
5041;DHT22;2539;52.568;13.364;2023-11-19T07:25:14;5.40;99.90
5041;DHT22;2539;52.568;13.364;2023-11-19T07:27:41;5.40;99.90
5041;DHT22;2539;52.568;13.364;2023-11-19T07:30:07;5.40;99.90
5041;DHT22;2539;52.568;13.364;2023-11-19T07:32:34;5.50;99.90
5041;DHT22;2539;52.568;13.364;2023-11-19T07:34:59;5.50;99.90
5041;DHT22;2539;52.568;13.364;2023-11-19T07:37:25;5.50;99.90
5041;DHT22;2539;52.568;13.364;2023-11-19T07:39:51;5.50;99.90
5041;DHT22;2539;52.568;13.364;2023-11-19T07:42:17;5.50;99.90
5041;DHT22;2539;52.568;13.364;2023-11-19T07:44:44;5.60;99.90
5041;DHT22;2539;52.568;13.364;2023-11-19T07:47:10;5.60;99.90
5041;DHT22;2539;52.568;13.364;2023-11-19T07:49:36;5.70;99.90
5041;DHT22;2539;52.568;13.364;2023-11-19T07:52:03;5.70;99.90
5041;DHT22;2539;52.568;13.364;2023-11-19T07:54:29;5.90;99.90
5041;DHT22;2539;52.568;13.364;2023-11-19T07:56:55;5.90;99.90
5041;DHT22;2539;52.568;13.364;2023-11-19T07:59:21;5.90;99.90
5041;DHT22;2539;52.568;13.364;2023-11-19T08:01:48;5.80;99.90
5041;DHT22;2539;52.568;13.364;2023-11-19T08:04:14;5.80;99.90
5041;DHT22;2539;52.568;13.364;2023-11-19T08:06:40;5.80;99.90
5041;DHT22;2539;52.568;13.364;2023-11-19T08:09:06;5.80;99.90
5041;DHT22;2539;52.568;13.364;2023-11-19T08:11:33;5.80;99.90
5041;DHT22;2539;52.568;13.364;2023-11-19T08:13:59;5.80;99.90
5041;DHT22;2539;52.568;13.364;2023-11-19T08:16:26;5.80;99.90
5041;DHT22;2539;52.568;13.364;2023-11-19T08:18:52;5.90;99.90
5041;DHT22;2539;52.568;13.364;2023-11-19T08:21:18;5.90;99.90
5041;DHT22;2539;52.568;13.364;2023-11-19T08:23:44;5.90;99.90
5041;DHT22;2539;52.568;13.364;2023-11-19T08:26:10;6.00;99.90
5041;DHT22;2539;52.568;13.364;2023-11-19T08:28:37;6.10;99.90
5041;DHT22;2539;52.568;13.364;2023-11-19T08:31:04;6.10;99.90
5041;DHT22;2539;52.568;13.364;2023-11-19T08:33:30;6.20;99.90
5041;DHT22;2539;52.568;13.364;2023-11-19T08:35:57;6.20;99.90
5041;DHT22;2539;52.568;13.364;2023-11-19T08:38:24;6.30;99.90
5041;DHT22;2539;52.568;13.364;2023-11-19T08:41:03;6.40;99.90
5041;DHT22;2539;52.568;13.364;2023-11-19T08:43:39;6.40;99.90
5041;DHT22;2539;52.568;13.364;2023-11-19T08:46:10;6.50;99.90
5041;DHT22;2539;52.568;13.364;2023-11-19T08:48:37;6.50;99.90
5041;DHT22;2539;52.568;13.364;2023-11-19T08:51:04;6.50;99.90
5041;DHT22;2539;52.568;13.364;2023-11-19T08:53:31;6.60;99.90
5041;DHT22;2539;52.568;13.364;2023-11-19T08:55:57;6.80;99.90
5041;DHT22;2539;52.568;13.364;2023-11-19T08:58:24;7.00;99.90
5041;DHT22;2539;52.568;13.364;2023-11-19T09:00:50;7.10;99.90
5041;DHT22;2539;52.568;13.364;2023-11-19T09:03:16;7.10;99.90
5041;DHT22;2539;52.568;13.364;2023-11-19T09:05:43;7.10;99.90
5041;DHT22;2539;52.568;13.364;2023-11-19T09:08:09;7.00;99.90
5041;DHT22;2539;52.568;13.364;2023-11-19T09:10:37;7.00;99.90
5041;DHT22;2539;52.568;13.364;2023-11-19T09:13:04;7.00;99.90
5041;DHT22;2539;52.568;13.364;2023-11-19T09:15:30;7.00;99.90
5041;DHT22;2539;52.568;13.364;2023-11-19T09:17:56;7.10;99.90
5041;DHT22;2539;52.568;13.364;2023-11-19T09:20:22;7.20;99.90
5041;DHT22;2539;52.568;13.364;2023-11-19T09:22:49;7.40;99.90
5041;DHT22;2539;52.568;13.364;2023-11-19T09:25:15;7.50;99.90
5041;DHT22;2539;52.568;13.364;2023-11-19T09:27:43;7.50;99.90
5041;DHT22;2539;52.568;13.364;2023-11-19T09:30:09;7.50;99.90
5041;DHT22;2539;52.568;13.364;2023-11-19T09:32:35;7.70;99.90
5041;DHT22;2539;52.568;13.364;2023-11-19T09:35:00;7.90;99.90
5041;DHT22;2539;52.568;13.364;2023-11-19T09:37:28;8.00;99.90
5041;DHT22;2539;52.568;13.364;2023-11-19T09:39:54;8.20;99.90
5041;DHT22;2539;52.568;13.364;2023-11-19T09:42:21;8.30;99.90
5041;DHT22;2539;52.568;13.364;2023-11-19T09:44:48;8.30;99.90
5041;DHT22;2539;52.568;13.364;2023-11-19T09:47:17;8.30;99.90
5041;DHT22;2539;52.568;13.364;2023-11-19T09:49:44;8.40;99.90
5041;DHT22;2539;52.568;13.364;2023-11-19T09:52:10;8.70;99.90
5041;DHT22;2539;52.568;13.364;2023-11-19T09:54:37;8.80;99.90
5041;DHT22;2539;52.568;13.364;2023-11-19T09:57:04;8.80;99.90
5041;DHT22;2539;52.568;13.364;2023-11-19T09:59:33;8.80;99.90
5041;DHT22;2539;52.568;13.364;2023-11-19T10:01:59;8.90;99.90
5041;DHT22;2539;52.568;13.364;2023-11-19T10:04:27;8.70;99.90
5041;DHT22;2539;52.568;13.364;2023-11-19T10:06:55;8.70;99.90
5041;DHT22;2539;52.568;13.364;2023-11-19T10:09:21;8.80;99.90
5041;DHT22;2539;52.568;13.364;2023-11-19T10:11:49;8.90;99.90
5041;DHT22;2539;52.568;13.364;2023-11-19T10:14:16;8.90;99.90
5041;DHT22;2539;52.568;13.364;2023-11-19T10:16:45;9.10;99.90
5041;DHT22;2539;52.568;13.364;2023-11-19T10:19:19;9.30;99.90
5041;DHT22;2539;52.568;13.364;2023-11-19T10:21:46;9.20;99.90
5041;DHT22;2539;52.568;13.364;2023-11-19T10:24:13;9.10;99.90
5041;DHT22;2539;52.568;13.364;2023-11-19T10:26:40;9.10;99.90
5041;DHT22;2539;52.568;13.364;2023-11-19T10:29:06;9.10;99.90
5041;DHT22;2539;52.568;13.364;2023-11-19T10:31:33;9.20;99.90
5041;DHT22;2539;52.568;13.364;2023-11-19T10:33:59;9.30;99.90
5041;DHT22;2539;52.568;13.364;2023-11-19T10:36:38;9.30;99.90
5041;DHT22;2539;52.568;13.364;2023-11-19T10:39:07;9.40;99.90
5041;DHT22;2539;52.568;13.364;2023-11-19T10:41:35;9.40;99.90
5041;DHT22;2539;52.568;13.364;2023-11-19T10:44:01;9.50;99.90
5041;DHT22;2539;52.568;13.364;2023-11-19T10:46:40;9.60;99.90
5041;DHT22;2539;52.568;13.364;2023-11-19T10:49:08;9.60;99.90
5041;DHT22;2539;52.568;13.364;2023-11-19T10:51:34;9.60;99.90
5041;DHT22;2539;52.568;13.364;2023-11-19T10:54:05;9.70;99.90
5041;DHT22;2539;52.568;13.364;2023-11-19T10:56:35;9.80;99.90
5041;DHT22;2539;52.568;13.364;2023-11-19T10:59:01;9.80;99.90
5041;DHT22;2539;52.568;13.364;2023-11-19T11:01:43;9.80;99.90
5041;DHT22;2539;52.568;13.364;2023-11-19T11:04:14;10.00;99.90
5041;DHT22;2539;52.568;13.364;2023-11-19T11:06:43;10.20;99.90
5041;DHT22;2539;52.568;13.364;2023-11-19T11:09:11;10.40;99.90
5041;DHT22;2539;52.568;13.364;2023-11-19T11:11:47;10.60;99.90
5041;DHT22;2539;52.568;13.364;2023-11-19T11:14:13;10.60;99.90
5041;DHT22;2539;52.568;13.364;2023-11-19T11:16:43;10.70;99.90
5041;DHT22;2539;52.568;13.364;2023-11-19T11:19:11;10.90;99.90
5041;DHT22;2539;52.568;13.364;2023-11-19T11:21:41;11.00;99.90
5041;DHT22;2539;52.568;13.364;2023-11-19T11:24:17;11.20;99.90
5041;DHT22;2539;52.568;13.364;2023-11-19T11:27:16;11.30;99.90
5041;DHT22;2539;52.568;13.364;2023-11-19T11:32:59;11.40;99.90
5041;DHT22;2539;52.568;13.364;2023-11-19T11:35:47;11.50;99.90
5041;DHT22;2539;52.568;13.364;2023-11-19T11:38:21;11.60;99.90
5041;DHT22;2539;52.568;13.364;2023-11-19T11:43:49;11.60;99.90
5041;DHT22;2539;52.568;13.364;2023-11-19T11:49:03;12.00;99.90
5041;DHT22;2539;52.568;13.364;2023-11-19T11:54:25;12.30;99.90
5041;DHT22;2539;52.568;13.364;2023-11-19T11:57:21;12.30;99.90
5041;DHT22;2539;52.568;13.364;2023-11-19T11:59:49;12.20;99.90
5041;DHT22;2539;52.568;13.364;2023-11-19T12:02:19;12.20;99.90
5041;DHT22;2539;52.568;13.364;2023-11-19T12:04:50;12.00;99.90
5041;DHT22;2539;52.568;13.364;2023-11-19T12:07:19;12.10;99.90
5041;DHT22;2539;52.568;13.364;2023-11-19T12:09:52;12.10;99.90
5041;DHT22;2539;52.568;13.364;2023-11-19T12:20:01;11.90;99.90
5041;DHT22;2539;52.568;13.364;2023-11-19T12:22:28;11.90;99.90
5041;DHT22;2539;52.568;13.364;2023-11-19T12:24:54;12.00;99.90
5041;DHT22;2539;52.568;13.364;2023-11-19T12:27:21;12.00;99.90
5041;DHT22;2539;52.568;13.364;2023-11-19T12:29:49;12.00;99.90
5041;DHT22;2539;52.568;13.364;2023-11-19T12:32:15;12.10;99.90
5041;DHT22;2539;52.568;13.364;2023-11-19T12:34:42;12.30;99.90
5041;DHT22;2539;52.568;13.364;2023-11-19T12:37:09;12.40;99.90
5041;DHT22;2539;52.568;13.364;2023-11-19T12:39:36;12.20;99.90
5041;DHT22;2539;52.568;13.364;2023-11-19T12:42:02;12.00;99.90
5041;DHT22;2539;52.568;13.364;2023-11-19T12:44:28;11.80;99.90
5041;DHT22;2539;52.568;13.364;2023-11-19T12:47:05;11.70;99.90
5041;DHT22;2539;52.568;13.364;2023-11-19T12:49:33;11.50;99.90
5041;DHT22;2539;52.568;13.364;2023-11-19T12:51:59;11.30;99.90
5041;DHT22;2539;52.568;13.364;2023-11-19T12:54:35;11.30;99.90
5041;DHT22;2539;52.568;13.364;2023-11-19T12:57:02;11.30;99.90
5041;DHT22;2539;52.568;13.364;2023-11-19T12:59:29;11.30;99.90
5041;DHT22;2539;52.568;13.364;2023-11-19T13:01:57;11.40;99.90
5041;DHT22;2539;52.568;13.364;2023-11-19T13:04:29;11.60;99.90
5041;DHT22;2539;52.568;13.364;2023-11-19T13:06:59;11.50;99.90
5041;DHT22;2539;52.568;13.364;2023-11-19T13:09:26;11.60;99.90
5041;DHT22;2539;52.568;13.364;2023-11-19T13:11:53;11.80;99.90
5041;DHT22;2539;52.568;13.364;2023-11-19T13:14:20;11.40;99.90
5041;DHT22;2539;52.568;13.364;2023-11-19T13:16:46;11.40;99.90
5041;DHT22;2539;52.568;13.364;2023-11-19T13:19:16;11.40;99.90
5041;DHT22;2539;52.568;13.364;2023-11-19T13:21:42;11.40;99.90
5041;DHT22;2539;52.568;13.364;2023-11-19T13:24:09;11.40;99.90
5041;DHT22;2539;52.568;13.364;2023-11-19T13:26:36;11.40;99.90
5041;DHT22;2539;52.568;13.364;2023-11-19T13:29:02;11.40;99.90
5041;DHT22;2539;52.568;13.364;2023-11-19T13:31:28;11.30;99.90
5041;DHT22;2539;52.568;13.364;2023-11-19T13:33:57;11.30;99.90
5041;DHT22;2539;52.568;13.364;2023-11-19T13:36:26;11.20;99.90
5041;DHT22;2539;52.568;13.364;2023-11-19T13:38:55;11.20;99.90
5041;DHT22;2539;52.568;13.364;2023-11-19T13:41:41;11.20;99.90
5041;DHT22;2539;52.568;13.364;2023-11-19T13:44:07;11.20;99.90
5041;DHT22;2539;52.568;13.364;2023-11-19T13:46:34;11.30;99.90
5041;DHT22;2539;52.568;13.364;2023-11-19T13:49:00;11.30;99.90
5041;DHT22;2539;52.568;13.364;2023-11-19T13:51:25;11.30;99.90
5041;DHT22;2539;52.568;13.364;2023-11-19T13:53:51;11.40;99.90
5041;DHT22;2539;52.568;13.364;2023-11-19T13:56:17;11.40;99.90
5041;DHT22;2539;52.568;13.364;2023-11-19T13:58:43;11.30;99.90
5041;DHT22;2539;52.568;13.364;2023-11-19T14:01:09;11.40;99.90
5041;DHT22;2539;52.568;13.364;2023-11-19T14:03:35;11.30;99.90
5041;DHT22;2539;52.568;13.364;2023-11-19T14:06:02;11.30;99.90
5041;DHT22;2539;52.568;13.364;2023-11-19T14:08:56;11.30;99.90
5041;DHT22;2539;52.568;13.364;2023-11-19T14:11:22;11.30;99.90
5041;DHT22;2539;52.568;13.364;2023-11-19T14:13:49;11.30;99.90
5041;DHT22;2539;52.568;13.364;2023-11-19T14:16:16;11.10;99.90
5041;DHT22;2539;52.568;13.364;2023-11-19T14:18:42;11.20;99.90
5041;DHT22;2539;52.568;13.364;2023-11-19T14:21:08;11.30;99.90
5041;DHT22;2539;52.568;13.364;2023-11-19T14:23:35;11.30;99.90
5041;DHT22;2539;52.568;13.364;2023-11-19T14:26:01;11.30;99.90
5041;DHT22;2539;52.568;13.364;2023-11-19T14:28:27;11.30;99.90
5041;DHT22;2539;52.568;13.364;2023-11-19T14:30:54;11.30;99.90
5041;DHT22;2539;52.568;13.364;2023-11-19T14:33:23;11.20;99.90
5041;DHT22;2539;52.568;13.364;2023-11-19T14:35:49;11.20;99.90
5041;DHT22;2539;52.568;13.364;2023-11-19T14:38:16;11.20;99.90
5041;DHT22;2539;52.568;13.364;2023-11-19T14:40:42;11.10;99.90
5041;DHT22;2539;52.568;13.364;2023-11-19T14:43:09;11.10;99.90
5041;DHT22;2539;52.568;13.364;2023-11-19T14:45:39;11.00;99.90
5041;DHT22;2539;52.568;13.364;2023-11-19T14:48:06;11.00;99.90
5041;DHT22;2539;52.568;13.364;2023-11-19T14:50:32;11.00;99.90
5041;DHT22;2539;52.568;13.364;2023-11-19T14:52:59;11.10;99.90
5041;DHT22;2539;52.568;13.364;2023-11-19T14:55:25;11.00;99.90
5041;DHT22;2539;52.568;13.364;2023-11-19T14:57:52;11.10;99.90
5041;DHT22;2539;52.568;13.364;2023-11-19T15:00:18;11.40;99.90
5041;DHT22;2539;52.568;13.364;2023-11-19T15:02:45;11.00;99.90
5041;DHT22;2539;52.568;13.364;2023-11-19T15:05:12;11.00;99.90
5041;DHT22;2539;52.568;13.364;2023-11-19T15:07:39;11.00;99.90
5041;DHT22;2539;52.568;13.364;2023-11-19T15:10:06;11.00;99.90
5041;DHT22;2539;52.568;13.364;2023-11-19T15:12:39;10.90;99.90
5041;DHT22;2539;52.568;13.364;2023-11-19T15:15:08;10.90;99.90
5041;DHT22;2539;52.568;13.364;2023-11-19T15:17:36;10.90;99.90
5041;DHT22;2539;52.568;13.364;2023-11-19T15:20:03;10.90;99.90
5041;DHT22;2539;52.568;13.364;2023-11-19T15:22:29;10.90;99.90
5041;DHT22;2539;52.568;13.364;2023-11-19T15:24:56;10.90;99.90
5041;DHT22;2539;52.568;13.364;2023-11-19T15:27:21;10.80;99.90
5041;DHT22;2539;52.568;13.364;2023-11-19T15:29:47;10.80;99.90
5041;DHT22;2539;52.568;13.364;2023-11-19T15:32:14;10.80;99.90
5041;DHT22;2539;52.568;13.364;2023-11-19T15:34:39;10.80;99.90
5041;DHT22;2539;52.568;13.364;2023-11-19T15:37:08;10.90;99.90
5041;DHT22;2539;52.568;13.364;2023-11-19T15:39:34;10.90;99.90
5041;DHT22;2539;52.568;13.364;2023-11-19T15:42:02;10.80;99.90
5041;DHT22;2539;52.568;13.364;2023-11-19T15:44:28;10.70;99.90
5041;DHT22;2539;52.568;13.364;2023-11-19T15:46:55;10.70;99.90
5041;DHT22;2539;52.568;13.364;2023-11-19T15:49:21;10.80;99.90
5041;DHT22;2539;52.568;13.364;2023-11-19T15:51:47;10.70;99.90
5041;DHT22;2539;52.568;13.364;2023-11-19T15:54:14;10.70;99.90
5041;DHT22;2539;52.568;13.364;2023-11-19T15:56:40;10.70;99.90
5041;DHT22;2539;52.568;13.364;2023-11-19T15:59:06;10.70;99.90
5041;DHT22;2539;52.568;13.364;2023-11-19T16:01:34;10.80;99.90
5041;DHT22;2539;52.568;13.364;2023-11-19T16:04:00;10.70;99.90
5041;DHT22;2539;52.568;13.364;2023-11-19T16:06:26;10.70;99.90
5041;DHT22;2539;52.568;13.364;2023-11-19T16:08:52;10.70;99.90
5041;DHT22;2539;52.568;13.364;2023-11-19T16:11:20;10.70;99.90
5041;DHT22;2539;52.568;13.364;2023-11-19T16:13:47;10.70;99.90
5041;DHT22;2539;52.568;13.364;2023-11-19T16:16:13;10.60;99.90
5041;DHT22;2539;52.568;13.364;2023-11-19T16:18:40;10.60;99.90